• Join FlightAware (Why Join?)
  • Login
  • US Flag 
10:40PM EDT


 

Airport Tracker/Info


-or-


 

Live Flight TrackerFlight Track Log ✈ FLG3862 ✈ 16-Apr-2013 ✈ KBTV - KDTW

Flight Track Log - Related Links

Times and Time Zones

All times are in EDT time to prevent confusion due to time zone crossing. See the FLG3862 flight status page for this flight to view local times or setup timezone preferences in your user account.

Time Position Orientation Groundspeed Altitude Reporting Facility
EDT Latitude Longitude Course Direction KTS MPH feet Rate Location/Type
12:52PM 44.3877 -73.6022 253° West  Level FlightAware Approximate
12:52PM 44.4122 -73.3003 258° West 219 252 8,300  Level Boston Center
12:53PM 44.3647 -73.7141 259° West  Level FlightAware Approximate
12:53PM 44.3992 -73.3903 259° West 225 259 11,000  Level Boston Center
12:54PM 44.3484 -73.8284 259° West  Level FlightAware Approximate
12:54PM 44.3836 -73.4886 258° West 246 283 13,100  Level Boston Center
12:55PM 44.3316 -73.9425 256° West  Level FlightAware Approximate
12:55PM 44.3681 -73.5931 258° West 264 304 14,800  Level Boston Center
12:56PM 44.3109 -74.0553 256° West  Level FlightAware Approximate
12:56PM 44.3503 -73.7031 257° West 287 330 16,500  Level Boston Center
12:57PM 44.3344 -73.8100 258° West 300 345 17,500 900 Climbing Boston Center
12:58PM 44.3142 -73.9342 257° West 323 372 18,400 960 Climbing Boston Center
12:59PM 44.2936 -74.0642 258° West 334 384 19,400 900 Climbing Boston Center
01:00PM 44.2686 -74.2028 256° West 340 391 20,300 840 Climbing Boston Center
01:01PM 44.2500 -74.3356 259° West 340 391 21,200 600 Climbing Boston Center
01:02PM 44.2289 -74.4739 258° West 351 404 21,600 660 Climbing Boston Center
01:03PM 44.2056 -74.6092 257° West 361 415 22,600 840 Climbing Boston Center
01:04PM 44.1819 -74.7444 256° West 361 415 23,300 780 Climbing Boston Center
01:05PM 44.1606 -74.8797 258° West 361 415 24,200 900 Climbing Boston Center
01:06PM 44.1389 -75.0119 257° West 361 415 25,200 900 Climbing Boston Center
01:07PM 44.1197 -75.1181 256° West 356 410 26,000 960 Climbing Boston Center
01:08PM 44.0931 -75.2703 256° West 351 404 27,200 840 Climbing Boston Center
01:09PM 44.0733 -75.3964 258° West 351 404 27,800 600 Climbing Boston Center
01:10PM 44.0511 -75.5225 256° West 346 398 28,400 540 Climbing Boston Center
01:11PM 44.0289 -75.6483 256° West 341 392 29,000 540 Climbing Boston Center
01:12PM 44.0044 -75.7769 255° West 341 392 29,500 480 Climbing Boston Center
01:13PM 43.9819 -75.9056 256° West 341 392 30,000 480 Climbing Boston Center
01:14PM 43.9592 -76.0314 256° West 341 392 30,500 480 Climbing Boston Center
01:15PM 43.9531 -76.1636 266° West 346 398 31,000 480 Climbing Boston Center
01:16PM 43.9486 -76.2961 267° West 346 398 31,500 480 Climbing Boston Center
01:17PM 43.9461 -76.4286 269° West 346 398 32,000 240 Climbing Boston Center
01:18PM 43.9414 -76.5667 267° West 346 398 32,000  Level Boston Center
01:19PM 43.9333 -76.7167 266° West 360 414 32,000  Level Toronto Center
01:20PM 43.9167 -76.8500 260° West 370 426 32,000  Level Toronto Center
01:21PM 43.9167 -77.0000 270° West 370 426 32,000  Level Toronto Center
01:22PM 43.9000 -77.1333 260° West 370 426 32,000  Level Toronto Center
01:23PM 43.9000 -77.2667 270° West 360 414 32,000  Level Toronto Center
01:24PM 43.9000 -77.4167 270° West 360 414 32,000  Level Toronto Center
01:25PM 43.9000 -77.5500 270° West 360 414 32,000  Level Toronto Center
01:26PM 43.9000 -77.6833 270° West 360 414 32,000  Level Toronto Center
01:27PM 43.8833 -77.8333 261° West 360 414 32,000  Level Toronto Center
01:29PM 43.8667 -78.1000 265° West 350 403 32,000  Level Toronto Center
01:30PM 43.8667 -78.2500 270° West 350 403 32,000  Level Toronto Center
01:31PM 43.8500 -78.3667 259° West 350 403 32,000  Level Toronto Center
01:32PM 43.8667 -78.5000 280° West 350 403 32,000  Level Toronto Center
01:33PM 43.8667 -78.6333 270° West 350 403 32,000  Level Toronto Center
01:34PM 43.8500 -78.7500 259° West 350 403 32,000  Level Toronto Center
01:35PM 43.8167 -78.9000 253° West 340 391 32,000  Level Toronto Center
01:36PM 43.7667 -79.0167 239° Southwest 350 403 32,000  Level Toronto Center
01:37PM 43.7167 -79.1000 230° Southwest 350 403 32,000  Level Toronto Center
01:38PM 43.6500 -79.2167 232° Southwest 350 403 32,000  Level Toronto Center
01:39PM 43.5833 -79.3167 227° Southwest 350 403 32,000  Level Toronto Center
01:40PM 43.5333 -79.4333 239° Southwest 350 403 32,000  Level Toronto Center
01:41PM 43.4667 -79.5333 227° Southwest 350 403 32,000 -540 Level Toronto Center
01:42PM 43.4000 -79.6500 232° Southwest 360 414 31,000 -1,260 Descending Toronto Center
01:43PM 43.3500 -79.7500 236° Southwest 380 437 29,500 -1,500 Descending Toronto Center
01:44PM 43.2833 -79.8667 232° Southwest 390 449 28,100 -900 Descending Toronto Center
01:45PM 43.2167 -79.9833 232° Southwest 370 426 27,800 -960 Descending Toronto Center
01:46PM 43.1500 -80.0833 228° Southwest 360 414 26,200 -1,560 Descending Toronto Center
01:47PM 43.0833 -80.2000 232° Southwest 360 414 24,700 -1,500 Descending Toronto Center
01:48PM 43.0333 -80.3000 236° Southwest 360 414 23,200 -1,380 Descending Toronto Center
01:49PM 42.9667 -80.4000 228° Southwest 340 391 22,000 -600 Descending Toronto Center
01:50PM 42.9167 -80.5000 236° Southwest 320 368 22,000  Level Toronto Center
01:51PM 42.8708 -80.6144 241° Southwest 321 369 22,000  Level Cleveland Center
01:52PM 42.8042 -80.6850 218° Southwest 316 364 22,000 -420 Level Cleveland Center
01:53PM 42.7083 -80.6397 161° South 307 353 21,200 -1,200 Descending Cleveland Center
01:54PM 42.6353 -80.6875 206° Southwest 295 339 19,600 -1,560 Descending Cleveland Center
01:55PM 42.6247 -80.7750 261° West 236 272 18,100 -1,500 Descending Cleveland Center
01:56PM 42.6744 -80.8656 307° West 233 268 16,700 -1,080 Descending Cleveland Center
01:57PM 42.7056 -80.9419 299° West 245 282 16,000 -360 Descending Cleveland Center
01:58PM 42.6947 -81.0408 262° West 259 298 16,000  Level Cleveland Center
01:59PM 42.6839 -81.1425 262° West 265 305 16,000  Level Cleveland Center
02:00PM 42.6814 -81.2442 268° West 265 305 16,000 -420 Level Cleveland Center
02:01PM 42.6911 -81.3403 278° West 265 305 15,200 -1,020 Descending Cleveland Center
02:02PM 42.6967 -81.4336 275° West 259 298 14,000 -600 Descending Cleveland Center
02:03PM 42.6939 -81.5294 268° West 254 292 14,000  Level Cleveland Center
02:04PM 42.6783 -81.6308 258° West 261 300 14,000  Level Cleveland Center
02:05PM 42.6586 -81.7294 255° West 256 295 14,000  Level Cleveland Center
02:06PM 42.6411 -81.8250 256° West 261 300 14,000  Level Cleveland Center
02:07PM 42.6256 -81.9178 257° West 261 300 14,000  Level Cleveland Center
02:08PM 42.6097 -82.0078 257° West 261 300 14,000  Level Cleveland Center
02:09PM 42.5919 -82.1006 255° West 261 300 14,000  Level Cleveland Center
02:10PM 42.5739 -82.1903 255° West 261 300 14,000  Level Cleveland Center
02:10PM 42.5669 -82.2408 259° West 252 290 14,000 -120 Level Cleveland Center
02:11PM 42.5561 -82.2828 251° West 261 300 13,900 -540 Descending Cleveland Center
02:11PM 42.5467 -82.3503 259° West 256 295 13,400 -720 Descending Cleveland Center
02:12PM 42.5400 -82.3783 252° West 261 300 13,200 -720 Descending Cleveland Center
02:12PM 42.5286 -82.4456 257° West 257 296 12,700 -720 Descending Cleveland Center
02:13PM 42.5219 -82.4706 250° West 261 300 12,500 -660 Descending Cleveland Center
02:13PM 42.5125 -82.5322 258° West 259 298 12,100 -540 Descending Cleveland Center
02:14PM 42.5014 -82.5631 244° Southwest 261 300 12,000 -1,020 Descending Cleveland Center
02:14PM 42.4839 -82.6186 247° West 255 293 11,100 -1,440 Descending Cleveland Center
02:15PM 42.4708 -82.6464 238° Southwest 261 300 10,600 -1,560 Descending Cleveland Center
02:15PM 42.4531 -82.7050 248° West 239 275 9,500 -1,500 Descending Cleveland Center
02:16PM 42.4444 -82.7300 245° Southwest 251 289 9,100 -600 Descending Cleveland Center
02:16PM 42.4411 -82.7919 266° West 227 261 8,900 -540 Descending Cleveland Center
02:17PM 42.4364 -82.8142 254° West 239 275 8,600 -1,500 Descending Cleveland Center
02:17PM 42.4353 -82.8789 269° West 233 268 7,400 -1,620 Descending Cleveland Center
02:18PM 42.4306 -82.9011 254° West 239 275 7,000 -360 Descending Cleveland Center
02:19PM 42.4397 -82.9664 281° West 211 243 7,000 -780 Level Cleveland Center
02:20PM 42.4428 -83.0114 275° West 163 188 5,700 -1,140 Descending Cleveland Center
02:21PM 42.4353 -83.0758 261° West 168 193 5,000 -360 Descending Cleveland Center
02:22PM 42.4194 -83.1286 248° West 156 180 5,000  Level Cleveland Center
02:23PM 42.3911 -83.1808 234° Southwest 161 185 5,000 -360 Level Cleveland Center
02:23PM 42.3653 -83.2219 230° Southwest 165 190 4,400 -960 Descending Cleveland Center
02:25PM 42.3228 -83.2567 211° Southwest 178 205 3,200 -1,200 Descending Cleveland Center